createdAt,value
2018-09-15T00:01:45.826Z,42.80
2018-09-15T00:04:15.512Z,42.70
2018-09-15T00:06:46.145Z,42.80
2018-09-15T00:09:15.663Z,42.70
2018-09-15T00:11:44.811Z,42.80
2018-09-15T00:14:13.918Z,42.80
2018-09-15T00:16:43.323Z,42.70
2018-09-15T00:19:12.400Z,42.50
2018-09-15T00:21:42.751Z,42.50
2018-09-15T00:24:11.819Z,43.00
2018-09-15T00:26:41.261Z,42.50
2018-09-15T00:29:10.342Z,42.50
2018-09-15T00:31:39.443Z,42.70
2018-09-15T00:34:09.852Z,42.50
2018-09-15T00:36:39.694Z,42.50
2018-09-15T00:39:10.159Z,43.10
2018-09-15T00:41:39.837Z,42.50
2018-09-15T00:44:10.034Z,42.40
2018-09-15T00:46:39.494Z,42.50
2018-09-15T00:49:08.700Z,42.50
2018-09-15T00:51:39.063Z,42.50
2018-09-15T00:54:08.698Z,42.50
2018-09-15T00:56:37.785Z,42.70
2018-09-15T00:59:07.375Z,42.50
2018-09-15T01:01:37.939Z,42.50
2018-09-15T01:04:07.618Z,42.50
2018-09-15T01:06:37.437Z,42.50
2018-09-15T01:09:08.826Z,42.50
2018-09-15T01:11:37.950Z,42.50
2018-09-15T01:14:07.145Z,42.40
2018-09-15T01:16:37.085Z,42.50
2018-09-15T01:19:07.538Z,43.10
2018-09-15T01:21:37.629Z,42.40
2018-09-15T01:24:07.161Z,42.40
2018-09-15T01:26:36.237Z,42.40
2018-09-15T01:29:06.817Z,42.40
2018-09-15T01:31:39.935Z,42.40
2018-09-15T01:34:10.806Z,42.30
2018-09-15T01:36:41.014Z,42.40
2018-09-15T01:39:11.858Z,42.40
2018-09-15T01:41:42.192Z,42.30
2018-09-15T01:44:12.078Z,42.30
2018-09-15T01:46:42.266Z,42.30
2018-09-15T01:49:12.747Z,42.30
2018-09-15T01:51:42.340Z,42.20
2018-09-15T01:54:11.397Z,42.30
2018-09-15T01:56:40.501Z,42.20
2018-09-15T01:59:09.599Z,42.20
2018-09-15T02:01:38.671Z,42.30
2018-09-15T02:04:09.243Z,42.30
2018-09-15T02:06:39.982Z,42.20
2018-09-15T02:09:12.972Z,42.80
2018-09-15T02:11:42.165Z,42.10
2018-09-15T02:14:12.272Z,42.30
2018-09-15T02:16:41.542Z,42.30
2018-09-15T02:19:10.686Z,42.20
2018-09-15T02:21:41.822Z,42.30
2018-09-15T02:24:10.937Z,42.20
2018-09-15T02:26:40.585Z,42.20
2018-09-15T02:29:11.400Z,42.20
2018-09-15T02:31:40.882Z,42.20
2018-09-15T02:34:10.501Z,42.10
2018-09-15T02:36:39.653Z,42.20
2018-09-15T02:39:10.131Z,42.30
2018-09-15T02:41:40.013Z,42.10
2018-09-15T02:44:10.581Z,42.20
2018-09-15T02:46:40.358Z,42.20
2018-09-15T02:49:10.371Z,42.10
2018-09-15T02:51:39.983Z,42.20
2018-09-15T02:54:09.750Z,42.10
2018-09-15T02:56:38.923Z,42.10
2018-09-15T02:59:08.831Z,42.20
2018-09-15T03:01:38.085Z,42.10
2018-09-15T03:04:07.846Z,42.20
2018-09-15T03:06:37.626Z,42.20
2018-09-15T03:09:09.411Z,42.20
2018-09-15T03:11:38.542Z,42.20
2018-09-15T03:14:07.629Z,42.20
2018-09-15T03:16:38.146Z,42.20
2018-09-15T03:19:07.238Z,42.20
2018-09-15T03:21:37.593Z,42.20
2018-09-15T03:24:07.569Z,42.20
2018-09-15T03:26:37.970Z,42.30
2018-09-15T03:29:09.050Z,42.30
2018-09-15T03:31:38.115Z,42.20
2018-09-15T03:34:07.654Z,42.20
2018-09-15T03:36:36.766Z,42.30
2018-09-15T03:39:09.255Z,42.30
2018-09-15T03:41:39.971Z,42.30
2018-09-15T03:44:10.095Z,42.30
2018-09-15T03:46:39.179Z,42.90
2018-09-15T03:49:08.770Z,42.30
2018-09-15T03:51:37.859Z,42.40
2018-09-15T03:54:08.786Z,42.20
2018-09-15T03:56:38.968Z,42.30
2018-09-15T03:59:08.060Z,42.30
2018-09-15T04:01:37.137Z,42.30
2018-09-15T04:04:07.369Z,42.40
2018-09-15T04:06:37.722Z,42.30
2018-09-15T04:09:09.412Z,42.30
2018-09-15T04:11:38.748Z,42.20
2018-09-15T04:14:08.449Z,42.20
2018-09-15T04:16:37.672Z,42.30
2018-09-15T04:19:07.414Z,42.30
2018-09-15T04:21:38.139Z,42.20
2018-09-15T04:24:08.400Z,42.20
2018-09-15T04:26:38.387Z,42.20
2018-09-15T04:29:07.769Z,42.30
2018-09-15T04:31:36.832Z,42.30
2018-09-15T04:34:05.930Z,42.30
2018-09-15T04:36:35.022Z,42.30
2018-09-15T04:39:08.803Z,42.30
2018-09-15T04:41:39.584Z,42.30
2018-09-15T04:44:09.116Z,42.20
2018-09-15T04:46:38.921Z,42.30
2018-09-15T04:49:08.021Z,42.20
2018-09-15T04:51:38.142Z,42.20
2018-09-15T04:54:07.450Z,42.20
2018-09-15T04:56:36.819Z,42.30
2018-09-15T04:59:08.382Z,42.20
2018-09-15T05:01:37.506Z,42.30
2018-09-15T05:04:07.460Z,42.20
2018-09-15T05:06:37.954Z,42.30
2018-09-15T05:09:10.370Z,42.40
2018-09-15T05:11:39.950Z,42.40
2018-09-15T05:14:10.458Z,42.50
2018-09-15T05:16:40.254Z,42.40
2018-09-15T05:19:09.466Z,42.70
2018-09-15T05:21:39.530Z,42.30
2018-09-15T05:24:09.310Z,43.20
2018-09-15T05:26:39.121Z,43.00
2018-09-15T05:29:08.360Z,43.00
2018-09-15T05:31:37.698Z,42.80
2018-09-15T05:34:06.844Z,42.70
2018-09-15T05:36:36.159Z,42.70
2018-09-15T05:39:09.001Z,42.60
2018-09-15T05:41:39.051Z,43.30
2018-09-15T05:44:10.249Z,42.40
2018-09-15T05:46:39.873Z,42.20
2018-09-15T05:49:09.093Z,42.00
2018-09-15T05:51:38.173Z,42.70
2018-09-15T05:54:07.288Z,42.40
2018-09-15T05:56:37.319Z,42.10
2018-09-15T05:59:07.884Z,42.50
2018-09-15T06:01:37.610Z,42.50
2018-09-15T06:04:07.851Z,41.60
2018-09-15T06:06:37.855Z,42.20
2018-09-15T06:09:08.906Z,42.80
2018-09-15T06:11:40.387Z,42.60
2018-09-15T06:14:09.453Z,42.40
2018-09-15T06:16:38.526Z,42.20
2018-09-15T06:19:07.714Z,41.90
2018-09-15T06:21:37.482Z,42.50
2018-09-15T06:24:06.648Z,42.90
2018-09-15T06:26:35.860Z,43.00
2018-09-15T06:29:05.058Z,42.80
2018-09-15T06:31:34.141Z,43.10
2018-09-15T06:34:04.335Z,43.40
2018-09-15T06:36:33.435Z,43.30
2018-09-15T06:39:06.225Z,43.40
2018-09-15T06:41:36.102Z,43.10
2018-09-15T06:44:06.281Z,43.00
2018-09-15T06:46:36.120Z,43.50
2018-09-15T06:49:05.470Z,44.10
2018-09-15T06:51:35.385Z,44.70
2018-09-15T06:54:04.450Z,44.10
2018-09-15T06:56:33.625Z,43.70
2018-09-15T06:59:02.842Z,43.50
2018-09-15T07:01:32.487Z,43.00
2018-09-15T07:04:02.085Z,43.30
2018-09-15T07:06:32.053Z,43.40
2018-09-15T07:09:01.973Z,43.20
2018-09-15T07:11:31.090Z,43.40
2018-09-15T07:14:00.191Z,43.40
2018-09-15T07:16:30.492Z,43.50
2018-09-15T07:18:59.938Z,43.60
2018-09-15T07:21:30.921Z,43.60
2018-09-15T07:24:00.019Z,43.20
2018-09-15T07:26:29.549Z,43.20
2018-09-15T07:28:58.928Z,42.80
2018-09-15T07:31:28.084Z,42.90
2018-09-15T07:33:57.249Z,42.60
2018-09-15T07:36:26.378Z,42.80
2018-09-15T07:38:57.298Z,42.50
2018-09-15T07:41:27.325Z,42.10
2018-09-15T07:43:58.490Z,41.80
2018-09-15T07:46:27.775Z,41.30
2018-09-15T07:48:56.909Z,41.10
2018-09-15T07:51:26.016Z,40.20
2018-09-15T07:53:55.722Z,40.00
2018-09-15T07:56:25.147Z,39.60
2018-09-15T07:58:55.668Z,39.40
2018-09-15T08:01:24.706Z,39.30
2018-09-15T08:03:54.211Z,38.80
2018-09-15T08:06:25.035Z,39.70
2018-09-15T08:08:54.579Z,39.00
2018-09-15T08:11:26.640Z,38.80
2018-09-15T08:13:55.981Z,38.10
2018-09-15T08:16:26.198Z,37.10
2018-09-15T08:18:55.962Z,36.60
2018-09-15T08:21:26.614Z,36.80
2018-09-15T08:23:55.883Z,36.60
2018-09-15T08:26:25.339Z,35.50
2018-09-15T08:28:54.379Z,36.80
2018-09-15T08:31:24.597Z,35.90
2018-09-15T08:33:53.867Z,35.90
2018-09-15T08:36:23.771Z,35.80
2018-09-15T08:38:54.130Z,34.90
2018-09-15T08:41:23.637Z,34.60
2018-09-15T08:43:53.545Z,35.40
2018-09-15T08:46:23.746Z,36.00
2018-09-15T08:48:52.865Z,36.20
2018-09-15T08:51:21.997Z,36.60
2018-09-15T08:53:51.186Z,37.40
2018-09-15T08:56:20.661Z,36.60
2018-09-15T08:58:50.677Z,36.30
2018-09-15T09:01:20.214Z,36.10
2018-09-15T09:03:49.942Z,36.70
2018-09-15T09:06:19.769Z,35.70
2018-09-15T09:08:49.238Z,36.80
2018-09-15T09:11:18.424Z,36.70
2018-09-15T09:13:47.949Z,35.40
2018-09-15T09:16:17.100Z,35.60
2018-09-15T09:18:46.653Z,35.70
2018-09-15T09:21:16.386Z,36.30
2018-09-15T09:23:46.074Z,36.50
2018-09-15T09:26:15.155Z,35.50
2018-09-15T09:28:44.975Z,35.20
2018-09-15T09:31:14.679Z,35.80
2018-09-15T09:33:44.519Z,34.70
2018-09-15T09:36:13.627Z,33.50
2018-09-15T09:38:43.798Z,33.50
2018-09-15T09:41:14.881Z,32.60
2018-09-15T09:43:47.362Z,32.30
2018-09-15T09:46:16.433Z,32.80
2018-09-15T09:48:47.646Z,33.40
2018-09-15T09:51:17.319Z,30.50
2018-09-15T09:53:47.702Z,29.60
2018-09-15T09:56:17.974Z,30.70
2018-09-15T09:58:47.545Z,31.30
2018-09-15T10:01:22.284Z,32.20
2018-09-15T10:03:55.239Z,32.40
2018-09-15T10:06:25.781Z,31.30
2018-09-15T10:08:55.363Z,31.00
2018-09-15T10:11:25.931Z,31.30
2018-09-15T10:13:58.166Z,31.00
2018-09-15T10:16:30.790Z,31.20
2018-09-15T10:19:03.788Z,31.10
2018-09-15T10:21:37.830Z,32.50
2018-09-15T10:24:10.614Z,31.50
2018-09-15T10:26:46.453Z,31.00
2018-09-15T10:29:18.667Z,30.90
2018-09-15T10:31:50.784Z,30.70
2018-09-15T10:34:27.681Z,30.00
2018-09-15T10:37:05.924Z,30.00
2018-09-15T10:39:37.776Z,30.70
2018-09-15T10:42:10.701Z,30.10
2018-09-15T10:44:44.272Z,32.30
2018-09-15T10:47:17.697Z,32.70
2018-09-15T10:49:49.886Z,33.40
2018-09-15T10:52:25.141Z,33.60
2018-09-15T10:54:58.407Z,33.40
2018-09-15T10:57:29.222Z,33.70
2018-09-15T11:00:02.656Z,33.30
2018-09-15T11:02:33.163Z,33.70
2018-09-15T11:05:02.317Z,33.90
2018-09-15T11:07:33.155Z,33.70
2018-09-15T11:10:03.680Z,33.80
2018-09-15T11:12:32.896Z,33.70
2018-09-15T11:15:01.981Z,33.10
2018-09-15T11:17:31.110Z,33.20
2018-09-15T11:20:00.250Z,33.50
2018-09-15T11:22:31.206Z,33.50
2018-09-15T11:25:00.382Z,32.80
2018-09-15T11:27:29.482Z,33.10
2018-09-15T11:29:58.647Z,33.30
2018-09-15T11:32:28.044Z,32.70
2018-09-15T11:34:58.405Z,33.20
2018-09-15T11:37:28.476Z,33.10
2018-09-15T11:39:58.405Z,33.40
2018-09-15T11:42:29.316Z,33.70
2018-09-15T11:44:59.320Z,33.70
2018-09-15T11:47:29.174Z,33.90
2018-09-15T11:49:59.853Z,33.70
2018-09-15T11:52:29.295Z,33.50
2018-09-15T11:54:59.853Z,33.50
2018-09-15T11:57:28.973Z,33.90
2018-09-15T11:59:58.113Z,34.00
2018-09-15T12:02:30.389Z,34.10
2018-09-15T12:04:59.700Z,34.40
2018-09-15T12:07:30.757Z,34.00
2018-09-15T12:10:00.131Z,34.20
2018-09-15T12:12:29.247Z,34.40
2018-09-15T12:14:58.338Z,34.20
2018-09-15T12:17:27.462Z,34.00
2018-09-15T12:19:57.378Z,34.50
2018-09-15T12:22:27.089Z,34.80
2018-09-15T12:24:57.254Z,34.80
2018-09-15T12:27:27.965Z,33.80
2018-09-15T12:29:57.837Z,33.80
2018-09-15T12:32:27.016Z,34.80
2018-09-15T12:34:56.975Z,34.90
2018-09-15T12:37:26.765Z,34.60
2018-09-15T12:39:56.729Z,34.70
2018-09-15T12:42:26.716Z,34.40
2018-09-15T12:44:56.629Z,34.50
2018-09-15T12:47:26.008Z,34.50
2018-09-15T12:49:55.498Z,34.00
2018-09-15T12:52:25.183Z,34.60
2018-09-15T12:54:54.435Z,34.10
2018-09-15T12:57:23.871Z,34.00
2018-09-15T12:59:53.091Z,33.50
2018-09-15T13:02:22.877Z,32.30
2018-09-15T13:04:53.229Z,32.00
2018-09-15T13:07:23.408Z,32.30
2018-09-15T13:09:52.585Z,32.50
2018-09-15T13:12:21.921Z,32.40
2018-09-15T13:14:51.073Z,32.60
2018-09-15T13:17:20.846Z,32.40
2018-09-15T13:19:50.861Z,33.30
2018-09-15T13:22:20.466Z,32.20
2018-09-15T13:24:50.299Z,32.40
2018-09-15T13:27:19.919Z,32.40
2018-09-15T13:29:49.407Z,32.50
2018-09-15T13:32:18.333Z,32.50
2018-09-15T13:34:47.419Z,32.40
2018-09-15T13:37:17.156Z,32.30
2018-09-15T13:39:46.563Z,32.10
2018-09-15T13:42:16.788Z,32.30
2018-09-15T13:44:47.391Z,32.30
2018-09-15T13:47:16.784Z,32.30
2018-09-15T13:49:45.920Z,32.40
2018-09-15T13:52:15.632Z,31.90
2018-09-15T13:54:46.565Z,32.10
2018-09-15T13:57:16.520Z,32.20
2018-09-15T13:59:45.730Z,32.30
2018-09-15T14:02:15.257Z,32.40
2018-09-15T14:04:44.771Z,33.10
2018-09-15T14:07:14.436Z,32.20
2018-09-15T14:09:44.330Z,32.10
2018-09-15T14:12:13.449Z,32.10
2018-09-15T14:14:43.163Z,32.40
2018-09-15T14:17:12.906Z,32.60
2018-09-15T14:19:43.863Z,32.70
2018-09-15T14:22:13.369Z,32.60
2018-09-15T14:24:42.670Z,32.90
2018-09-15T14:27:11.769Z,33.00
2018-09-15T14:29:40.981Z,33.30
2018-09-15T14:32:11.155Z,33.00
2018-09-15T14:34:40.457Z,33.10
2018-09-15T14:37:10.134Z,33.10
2018-09-15T14:39:39.519Z,33.40
2018-09-15T14:42:09.149Z,33.40
2018-09-15T14:44:39.326Z,33.50
2018-09-15T14:47:08.586Z,33.40
2018-09-15T14:49:37.644Z,33.00
2018-09-15T14:52:06.932Z,32.90
2018-09-15T14:54:36.077Z,33.00
2018-09-15T14:57:05.386Z,32.90
2018-09-15T14:59:35.902Z,32.50
2018-09-15T15:02:05.058Z,32.80
2018-09-15T15:04:35.057Z,32.90
2018-09-15T15:07:04.758Z,33.00
2018-09-15T15:09:34.166Z,32.70
2018-09-15T15:12:03.328Z,32.80
2018-09-15T15:14:32.755Z,33.50
2018-09-15T15:17:01.890Z,33.50
2018-09-15T15:19:31.581Z,33.80
2018-09-15T15:22:00.622Z,34.30
2018-09-15T15:24:29.681Z,33.90
2018-09-15T15:26:58.755Z,34.00
2018-09-15T15:29:27.829Z,34.10
2018-09-15T15:31:56.970Z,33.90
2018-09-15T15:34:26.871Z,33.80
2018-09-15T15:36:56.849Z,33.80
2018-09-15T15:39:25.940Z,33.90
2018-09-15T15:41:55.643Z,34.10
2018-09-15T15:44:26.091Z,34.30
2018-09-15T15:46:55.158Z,34.50
2018-09-15T15:49:24.718Z,34.70
2018-09-15T15:51:53.763Z,33.80
2018-09-15T15:54:22.821Z,33.90
2018-09-15T15:56:53.344Z,33.90
2018-09-15T15:59:23.023Z,33.50
2018-09-15T16:01:52.149Z,33.80
2018-09-15T16:04:21.969Z,34.30
2018-09-15T16:06:51.549Z,34.00
2018-09-15T16:09:21.051Z,33.70
2018-09-15T16:11:50.611Z,33.50
2018-09-15T16:14:20.567Z,33.80
2018-09-15T16:16:51.538Z,33.80
2018-09-15T16:19:21.119Z,33.70
2018-09-15T16:21:51.257Z,34.40
2018-09-15T16:24:20.620Z,34.50
2018-09-15T16:26:50.851Z,34.60
2018-09-15T16:29:19.986Z,34.70
2018-09-15T16:31:49.772Z,35.20
2018-09-15T16:34:19.192Z,35.90
2018-09-15T16:36:49.786Z,36.00
2018-09-15T16:39:19.059Z,36.40
2018-09-15T16:41:49.136Z,36.50
2018-09-15T16:44:18.563Z,36.10
2018-09-15T16:46:47.625Z,36.00
2018-09-15T16:49:18.111Z,36.00
2018-09-15T16:51:47.918Z,35.90
2018-09-15T16:54:17.019Z,35.90
2018-09-15T16:56:46.212Z,35.90
2018-09-15T16:59:16.765Z,36.00
2018-09-15T17:01:45.868Z,36.10
2018-09-15T17:04:15.594Z,36.90
2018-09-15T17:06:45.406Z,36.40
2018-09-15T17:09:15.728Z,36.40
2018-09-15T17:11:45.108Z,36.50
2018-09-15T17:14:15.470Z,36.60
2018-09-15T17:16:45.338Z,36.70
2018-09-15T17:19:14.440Z,36.70
2018-09-15T17:21:43.523Z,36.80
2018-09-15T17:24:13.471Z,37.00
2018-09-15T17:26:43.420Z,36.80
2018-09-15T17:29:12.642Z,37.00
2018-09-15T17:31:41.849Z,37.10
2018-09-15T17:34:10.963Z,37.10
2018-09-15T17:36:42.846Z,37.00
2018-09-15T17:39:12.925Z,37.20
2018-09-15T17:41:42.782Z,37.40
2018-09-15T17:44:12.473Z,37.60
2018-09-15T17:46:42.737Z,37.70
2018-09-15T17:49:11.862Z,38.00
2018-09-15T17:51:40.934Z,38.00
2018-09-15T17:54:10.358Z,38.00
2018-09-15T17:56:40.426Z,38.10
2018-09-15T17:59:09.525Z,38.10
2018-09-15T18:01:38.812Z,38.10
2018-09-15T18:04:09.163Z,38.30
2018-09-15T18:06:39.663Z,38.40
2018-09-15T18:09:09.447Z,38.60
2018-09-15T18:11:38.485Z,38.80
2018-09-15T18:14:08.285Z,39.00
2018-09-15T18:16:37.759Z,39.30
2018-09-15T18:19:06.873Z,38.80
2018-09-15T18:21:36.088Z,39.60
2018-09-15T18:24:06.320Z,39.90
2018-09-15T18:26:35.381Z,39.70
2018-09-15T18:29:05.476Z,39.90
2018-09-15T18:31:34.553Z,40.10
2018-09-15T18:34:03.610Z,40.30
2018-09-15T18:36:35.474Z,41.10
2018-09-15T18:39:07.018Z,41.60
2018-09-15T18:41:36.754Z,41.90
2018-09-15T18:44:12.144Z,42.10
2018-09-15T18:46:41.489Z,41.80
2018-09-15T18:49:10.612Z,42.00
2018-09-15T18:51:39.734Z,42.00
2018-09-15T18:54:10.020Z,42.00
2018-09-15T18:56:39.719Z,43.00
2018-09-15T18:59:08.866Z,41.90
2018-09-15T19:01:38.055Z,41.90
2018-09-15T19:04:09.163Z,42.40
2018-09-15T19:06:39.055Z,42.40
2018-09-15T19:09:10.534Z,42.50
2018-09-15T19:11:40.295Z,42.70
2018-09-15T19:14:09.774Z,42.80
2018-09-15T19:16:39.574Z,42.90
2018-09-15T19:19:09.038Z,43.00
2018-09-15T19:21:38.702Z,43.20
2018-09-15T19:24:08.278Z,43.20
2018-09-15T19:26:37.469Z,43.30
2018-09-15T19:29:06.499Z,43.40
2018-09-15T19:31:35.702Z,43.40
2018-09-15T19:34:05.238Z,43.60
2018-09-15T19:36:35.573Z,43.70
2018-09-15T19:39:09.488Z,43.80
2018-09-15T19:41:39.484Z,43.90
2018-09-15T19:44:09.167Z,44.00
2018-09-15T19:46:38.911Z,44.10
2018-09-15T19:49:09.169Z,44.10
2018-09-15T19:51:38.379Z,44.30
2018-09-15T19:54:08.300Z,44.30
2018-09-15T19:56:37.359Z,44.40
2018-09-15T19:59:07.675Z,44.30
2018-09-15T20:01:37.411Z,44.40
2018-09-15T20:04:06.878Z,44.50
2018-09-15T20:06:36.491Z,44.70
2018-09-15T20:09:08.166Z,44.60
2018-09-15T20:11:38.358Z,45.30
2018-09-15T20:14:08.401Z,45.30
2018-09-15T20:16:36.698Z,45.40
2018-09-15T20:19:05.398Z,45.50
2018-09-15T20:21:33.377Z,45.80
2018-09-15T20:24:02.546Z,45.50
2018-09-15T20:26:32.204Z,45.60
2018-09-15T20:29:01.296Z,45.50
2018-09-15T20:31:30.407Z,45.50
2018-09-15T20:33:59.570Z,45.50
2018-09-15T20:36:28.939Z,45.50
2018-09-15T20:38:58.997Z,45.40
2018-09-15T20:41:28.740Z,45.40
2018-09-15T20:43:58.494Z,45.50
2018-09-15T20:46:27.578Z,45.70
2018-09-15T20:48:56.714Z,45.90
2018-09-15T20:51:25.820Z,45.90
2018-09-15T20:53:54.898Z,46.20
2018-09-15T20:56:25.229Z,46.20
2018-09-15T20:58:54.322Z,46.00
2018-09-15T21:01:23.458Z,46.20
2018-09-15T21:03:52.932Z,45.90
2018-09-15T21:06:23.283Z,45.60
2018-09-15T21:08:53.621Z,45.70
2018-09-15T21:11:22.914Z,45.70
2018-09-15T21:13:52.615Z,45.40
2018-09-15T21:16:21.753Z,45.30
2018-09-15T21:18:51.229Z,45.40
2018-09-15T21:21:20.329Z,45.40
2018-09-15T21:23:49.398Z,45.40
2018-09-15T21:26:18.484Z,45.50
2018-09-15T21:28:47.579Z,45.40
2018-09-15T21:31:17.285Z,45.50
2018-09-15T21:33:46.536Z,45.90
2018-09-15T21:36:16.249Z,45.70
2018-09-15T21:38:46.541Z,45.30
2018-09-15T21:41:16.365Z,45.20
2018-09-15T21:43:46.902Z,45.00
2018-09-15T21:46:16.845Z,44.90
2018-09-15T21:48:46.731Z,44.70
2018-09-15T21:51:16.542Z,44.90
2018-09-15T21:53:45.812Z,44.70
2018-09-15T21:56:14.897Z,44.80
2018-09-15T21:58:44.950Z,44.70
2018-09-15T22:01:14.049Z,44.80
2018-09-15T22:03:49.248Z,44.70
2018-09-15T22:06:18.350Z,44.50
2018-09-15T22:08:49.314Z,44.80
2018-09-15T22:11:18.441Z,44.70
2018-09-15T22:13:49.044Z,44.60
2018-09-15T22:16:18.578Z,44.60
2018-09-15T22:18:47.686Z,44.60
2018-09-15T22:21:16.832Z,44.60
2018-09-15T22:23:46.015Z,44.60
2018-09-15T22:26:15.602Z,44.50
2018-09-15T22:28:45.462Z,44.60
2018-09-15T22:31:14.557Z,44.80
2018-09-15T22:33:43.810Z,44.90
2018-09-15T22:36:13.395Z,44.80
2018-09-15T22:38:44.076Z,44.90
2018-09-15T22:41:13.995Z,45.00
2018-09-15T22:43:43.471Z,44.90
2018-09-15T22:46:12.543Z,44.90
2018-09-15T22:48:41.670Z,45.10
2018-09-15T22:51:11.079Z,45.00
2018-09-15T22:53:41.318Z,45.00
2018-09-15T22:56:12.511Z,45.10
2018-09-15T22:58:41.732Z,45.10
2018-09-15T23:01:10.798Z,45.00
2018-09-15T23:03:40.466Z,45.00
2018-09-15T23:06:10.173Z,45.20
2018-09-15T23:08:39.850Z,45.20
2018-09-15T23:11:09.166Z,45.30
2018-09-15T23:13:38.854Z,45.30
2018-09-15T23:16:07.949Z,45.50
2018-09-15T23:18:38.997Z,45.60
2018-09-15T23:21:08.079Z,45.80
2018-09-15T23:23:37.810Z,46.10
2018-09-15T23:26:06.864Z,46.10
2018-09-15T23:28:36.786Z,46.40
2018-09-15T23:31:05.902Z,46.60
2018-09-15T23:33:34.959Z,46.70
2018-09-15T23:36:04.114Z,46.90
2018-09-15T23:38:33.822Z,47.10
2018-09-15T23:41:04.395Z,47.20
2018-09-15T23:43:34.894Z,47.60
2018-09-15T23:46:04.350Z,47.70
2018-09-15T23:48:33.446Z,47.70
2018-09-15T23:51:02.587Z,48.40
2018-09-15T23:53:32.434Z,48.60
2018-09-15T23:56:01.509Z,48.80
2018-09-15T23:58:31.718Z,48.80
